Terminal Aerodrome Forecast
Issued by NWS

Current Version | Previous Version | Graphics & Text | Print | Product List | Glossary On
Versions: 1 2 3 4 5 6 7 8 9 10 11 12 13 14 15 16 17 18 19 20 21 22 23 24 25
000
FTUS41 KRNK 200246 AAC
TAFLWB
TAF AMD
KLWB 200246Z 2003/2024 30006KT 5SM BR SCT025
     FM201000 VRB03KT 4SM BR FEW010 BKN025
      TEMPO 2010/2013 1/2SM FG OVC010
     FM201300 VRB03KT P6SM SCT250=

USA.gov is the U.S. government's official web portal to all federal, state and local government web resources and services.